Time;durP1;ratioP1;P1;durP2;ratioP2;P2;SDS_P1;SDS_P2;PMS_P1;PMS_P2;Temp;Humidity;BMP_temperature;BMP_pressure;BME280_temperature;BME280_humidity;BME280_pressure;Samples;Min_cycle;Max_cycle;Signal;HPM_P1;HPM_P2
2022/04/20 00:01:21;;;;;;;0.20;0.20;;;13.00;99.90;12.80;101416.00;;;;5098095;28;20193;-70
2022/04/20 00:03:52;;;;;;;0.40;0.40;;;12.90;99.90;12.80;101438.00;;;;5115987;28;20528;-71
2022/04/20 00:06:29;;;;;;;0.20;0.20;;;12.80;99.90;12.90;101375.00;;;;5097965;28;20188;-71
2022/04/20 00:08:58;;;;;;;0.53;0.53;;;12.80;99.90;12.60;101422.00;;;;5114602;28;20186;-71
2022/04/20 00:11:29;;;;;;;1.80;0.83;;;12.70;99.90;12.60;101428.00;;;;5098396;28;20209;-71
2022/04/20 00:14:04;;;;;;;0.40;0.40;;;12.70;99.90;13.00;101432.00;;;;5097995;28;20228;-70
2022/04/20 00:16:34;;;;;;;0.10;0.10;;;12.70;99.90;12.90;101433.00;;;;5099072;28;20632;-70
2022/04/20 00:19:02;;;;;;;0.93;0.83;;;12.80;99.90;12.70;101430.00;;;;5098187;28;20180;-71
2022/04/20 00:21:34;;;;;;;0.57;0.57;;;12.70;99.90;12.70;101428.00;;;;5097712;28;20248;-69
2022/04/20 00:24:04;;;;;;;1.23;1.13;;;12.70;99.90;12.50;101420.00;;;;5114655;28;20216;-69
2022/04/20 00:26:33;;;;;;;0.37;0.37;;;12.60;99.90;12.40;101421.00;;;;5114621;28;20275;-69
2022/04/20 00:29:03;;;;;;;0.20;0.20;;;12.50;99.90;12.70;101432.00;;;;5114739;28;20176;-70
2022/04/20 00:31:40;;;;;;;0.85;0.85;;;12.60;99.90;12.40;101425.00;;;;5097136;28;20438;-69
2022/04/20 00:34:11;;;;;;;0.33;0.33;;;12.60;99.90;12.30;101382.00;;;;5098837;28;20193;-70
2022/04/20 00:36:50;;;;;;;0.50;0.50;;;12.50;99.90;12.30;101417.00;;;;5116083;28;20177;-70
2022/04/20 00:39:17;;;;;;;0.20;0.20;;;12.50;99.90;12.30;101426.00;;;;5114422;28;20644;-70
2022/04/20 00:41:49;;;;;;;0.57;0.50;;;12.50;99.90;12.50;101385.00;;;;5114437;28;20196;-70
2022/04/20 00:44:19;;;;;;;1.13;1.13;;;12.50;99.90;12.20;101422.00;;;;5114351;28;20169;-70
2022/04/20 00:46:55;;;;;;;0.13;0.13;;;12.40;99.90;12.30;101417.00;;;;5114319;28;20180;-70
2022/04/20 00:49:24;;;;;;;1.50;1.03;;;12.40;99.90;12.10;101427.00;;;;5114199;28;20571;-70
2022/04/20 00:52:00;;;;;;;10.90;9.87;;;12.30;99.90;12.10;101407.00;;;;5096931;28;20202;-70
2022/04/20 00:54:30;;;;;;;0.80;0.80;;;12.30;99.90;12.30;101423.00;;;;5113465;28;20175;-70
2022/04/20 00:57:02;;;;;;;0.47;0.47;;;12.30;99.90;12.60;101420.00;;;;5097360;28;20223;-70
2022/04/20 00:59:29;;;;;;;0.30;0.30;;;12.40;99.90;12.20;101405.00;;;;5115197;28;20655;-70
2022/04/20 01:02:10;;;;;;;0.20;0.20;;;12.30;99.90;12.30;101424.00;;;;5096888;28;20665;-70
2022/04/20 01:04:49;;;;;;;1.40;0.97;;;12.30;99.90;12.10;101425.00;;;;5097049;28;20177;-70
2022/04/20 01:07:26;;;;;;;0.20;0.20;;;12.30;99.90;12.20;101419.00;;;;5113521;28;20177;-69
2022/04/20 01:09:52;;;;;;;0.80;0.80;;;12.20;99.90;12.00;101417.00;;;;5097958;28;20229;-70
2022/04/20 01:12:23;;;;;;;0.60;0.60;;;12.20;99.90;12.10;101408.00;;;;5113885;28;20194;-70
2022/04/20 01:15:00;;;;;;;0.80;0.80;;;12.20;99.90;12.00;101411.00;;;;5096957;28;20207;-71
2022/04/20 01:17:27;;;;;;;0.40;0.40;;;12.10;99.90;11.90;101410.00;;;;5113873;28;20158;-71
2022/04/20 01:19:54;;;;;;;3.87;1.97;;;12.10;99.90;11.90;101393.00;;;;5096594;28;20188;-71
2022/04/20 01:22:27;;;;;;;0.70;0.70;;;12.10;99.90;11.90;101407.00;;;;5113316;28;20173;-70
2022/04/20 01:24:56;;;;;;;0.30;0.30;;;12.10;99.90;12.00;101404.00;;;;5096579;28;20195;-71
2022/04/20 01:27:40;;;;;;;0.10;0.10;;;12.10;99.90;12.10;101356.00;;;;5113698;28;20221;-70
2022/04/20 01:30:09;;;;;;;1.37;1.27;;;12.10;99.90;12.30;101369.00;;;;5114665;28;20182;-71
2022/04/20 01:32:47;;;;;;;0.20;0.20;;;12.20;99.90;12.10;101403.00;;;;5113125;28;20223;-71
2022/04/20 01:35:15;;;;;;;0.20;0.20;;;12.20;99.90;12.20;101391.00;;;;5079254;28;20215;-71
2022/04/20 01:37:49;;;;;;;0.23;0.23;;;12.20;99.90;11.90;101388.00;;;;5113246;28;20590;-70
2022/04/20 01:40:34;;;;;;;0.20;0.20;;;12.00;99.90;11.90;101403.00;;;;5096943;28;20189;-70
2022/04/20 01:43:08;;;;;;;0.83;0.83;;;12.00;99.90;12.00;101401.00;;;;5096660;28;20187;-70
2022/04/20 01:45:39;;;;;;;0.30;0.30;;;12.00;99.90;11.90;101393.00;;;;5114604;28;20164;-70
2022/04/20 01:48:13;;;;;;;0.40;0.40;;;12.00;99.90;11.90;101398.00;;;;5095844;28;20264;-70
2022/04/20 01:53:46;;;;;;;0.60;0.60;;;12.10;99.90;12.00;101396.00;;;;5113052;28;20715;-70
2022/04/20 01:56:33;;;;;;;1.63;1.23;;;12.10;99.90;12.00;101395.00;;;;5113770;28;20167;-70
2022/04/20 01:59:02;;;;;;;0.30;0.30;;;12.00;99.90;11.90;101387.00;;;;5113034;28;20219;-70
2022/04/20 02:04:25;;;;;;;0.60;0.60;;;11.90;99.90;12.00;101389.00;;;;5112789;28;20194;-71
2022/04/20 02:06:56;;;;;;;0.10;0.10;;;12.00;99.90;11.90;101387.00;;;;5096579;28;20183;-70
2022/04/20 02:09:29;;;;;;;0.20;0.20;;;11.90;99.90;11.80;101385.00;;;;5095588;28;20660;-70
2022/04/20 02:11:57;;;;;;;1.53;1.43;;;11.90;99.90;12.30;101371.00;;;;5113303;28;20183;-70
2022/04/20 02:14:28;;;;;;;0.53;0.53;;;12.00;99.90;12.30;101390.00;;;;5112653;28;20262;-70
2022/04/20 02:16:59;;;;;;;0.50;0.50;;;12.00;99.90;11.70;101401.00;;;;5113313;28;20184;-70
2022/04/20 02:19:32;;;;;;;0.30;0.30;;;11.90;99.90;11.80;101399.00;;;;5095321;28;20578;-70
2022/04/20 02:22:01;;;;;;;0.20;0.20;;;11.80;99.90;11.60;101346.00;;;;5112974;28;20247;-70
2022/04/20 02:24:30;;;;;;;2.73;1.80;;;11.70;99.90;11.90;101378.00;;;;5095297;28;20653;-70
2022/04/20 02:27:00;;;;;;;0.93;0.63;;;11.80;99.90;11.70;101394.00;;;;5112700;28;20270;-70
2022/04/20 02:29:26;;;;;;;1.13;1.13;;;11.70;99.90;11.50;101399.00;;;;5113744;28;20223;-70
2022/04/20 02:31:53;;;;;;;0.30;0.30;;;11.60;99.90;11.80;101387.00;;;;5112521;28;20206;-70
2022/04/20 02:34:26;;;;;;;0.30;0.30;;;11.60;99.90;11.70;101395.00;;;;5112239;28;20188;-70
2022/04/20 02:36:52;;;;;;;1.57;1.27;;;11.70;99.90;11.70;101390.00;;;;5095380;28;20549;-70
2022/04/20 02:39:24;;;;;;;0.93;0.93;;;11.60;99.90;11.70;101393.00;;;;5095443;28;20178;-70
2022/04/20 02:41:55;;;;;;;0.60;0.60;;;11.60;99.90;11.80;101394.00;;;;5095688;28;20278;-70
2022/04/20 02:44:21;;;;;;;0.50;0.50;;;11.70;99.90;11.90;101351.00;;;;5113839;28;20525;-70
2022/04/20 02:46:47;;;;;;;0.30;0.30;;;11.60;99.90;11.90;101402.00;;;;5095651;28;20212;-70
2022/04/20 02:49:16;;;;;;;0.30;0.30;;;11.70;99.90;11.70;101357.00;;;;5111973;28;20581;-70
2022/04/20 02:51:42;;;;;;;2.53;0.70;;;11.60;99.90;11.90;101404.00;;;;5112363;28;20192;-70
2022/04/20 02:54:15;;;;;;;2.57;0.83;;;11.60;99.90;12.10;101358.00;;;;5095667;28;20567;-70
2022/04/20 02:56:45;;;;;;;1.93;0.73;;;11.70;99.90;11.90;101403.00;;;;5113944;28;20188;-70
2022/04/20 02:59:15;;;;;;;0.27;0.27;;;11.70;99.90;11.70;101411.00;;;;5113224;28;20642;-70
2022/04/20 03:01:48;;;;;;;0.20;0.20;;;11.70;99.90;11.70;101412.00;;;;5111967;28;20276;-68
2022/04/20 03:04:20;;;;;;;0.40;0.40;;;11.70;99.90;11.80;101418.00;;;;5095567;28;20188;-68
2022/04/20 03:06:46;;;;;;;0.50;0.47;;;11.60;99.90;11.90;101402.00;;;;5096034;28;20598;-69
2022/04/20 03:09:17;;;;;;;0.70;0.60;;;11.60;99.90;11.90;101415.00;;;;5094956;28;20277;-69
2022/04/20 03:11:50;;;;;;;0.40;0.20;;;11.60;99.90;11.80;101406.00;;;;5112373;28;20236;-69
2022/04/20 03:14:18;;;;;;;0.20;0.20;;;11.60;99.90;11.30;101413.00;;;;5112067;28;20642;-69
2022/04/20 03:16:54;;;;;;;0.30;0.30;;;11.50;99.90;11.30;101413.00;;;;5095181;28;20183;-69
2022/04/20 03:19:20;;;;;;;0.67;0.67;;;11.30;99.90;11.40;101413.00;;;;5114970;28;20526;-69
2022/04/20 03:21:51;;;;;;;0.40;0.40;;;11.30;99.90;11.70;101427.00;;;;5099315;28;20180;-69
2022/04/20 03:24:20;;;;;;;0.20;0.20;;;11.30;99.90;11.60;101427.00;;;;5115788;28;20174;-68
2022/04/20 03:26:50;;;;;;;0.20;0.20;;;11.30;99.90;12.00;101426.00;;;;5098726;28;20701;-69
2022/04/20 03:29:19;;;;;;;0.97;0.97;;;11.50;99.90;11.80;101432.00;;;;5116047;28;20185;-68
2022/04/20 03:31:45;;;;;;;3.77;3.67;;;11.50;99.90;11.70;101425.00;;;;5098289;28;20213;-69
2022/04/20 03:34:25;;;;;;;0.63;0.63;;;11.50;99.90;11.30;101430.00;;;;5114883;28;20203;-69
2022/04/20 03:36:51;;;;;;;0.20;0.20;;;11.30;99.90;11.60;101395.00;;;;5115629;28;20217;-69
2022/04/20 03:39:40;;;;;;;0.20;0.20;;;11.30;99.90;11.30;101439.00;;;;5115692;28;20214;-69
2022/04/20 03:42:10;;;;;;;0.40;0.40;;;11.20;99.90;11.40;101419.00;;;;5116087;28;20189;-69
2022/04/20 03:44:48;;;;;;;0.30;0.30;;;11.20;99.90;10.90;101408.00;;;;5115644;28;20190;-69
2022/04/20 03:47:16;;;;;;;0.20;0.20;;;11.00;99.90;10.90;101402.00;;;;5116415;28;20186;-69
2022/04/20 03:49:50;;;;;;;1.17;1.13;;;10.90;99.90;11.10;101440.00;;;;5098539;28;20174;-69
2022/04/20 03:52:27;;;;;;;1.03;1.03;;;10.90;99.90;11.00;101393.00;;;;5098982;28;20667;-69
2022/04/20 03:55:00;;;;;;;0.37;0.37;;;10.90;99.90;10.40;101428.00;;;;5098230;28;20561;-70
2022/04/20 03:57:28;;;;;;;0.60;0.47;;;10.70;99.90;10.80;101420.00;;;;5115463;28;20541;-70
2022/04/20 03:59:57;;;;;;;0.40;0.40;;;10.70;99.90;10.40;101424.00;;;;5115330;28;20275;-69
2022/04/20 04:02:25;;;;;;;0.30;0.30;;;10.60;99.90;10.70;101418.00;;;;5097462;28;20201;-69
2022/04/20 04:04:53;;;;;;;0.23;0.23;;;10.60;99.90;10.60;101423.00;;;;5098406;28;20183;-69
2022/04/20 04:07:26;;;;;;;3.20;0.80;;;10.60;99.90;10.60;101438.00;;;;5097821;28;20181;-70
2022/04/20 04:10:00;;;;;;;0.43;0.43;;;10.60;99.90;10.60;101380.00;;;;5115289;28;20217;-69
2022/04/20 04:12:31;;;;;;;0.30;0.30;;;10.60;99.90;10.80;101442.00;;;;5098454;28;20207;-69
2022/04/20 04:15:17;;;;;;;0.30;0.30;;;10.60;99.90;11.10;101443.00;;;;5114840;28;20185;-69
2022/04/20 04:17:48;;;;;;;1.40;1.40;;;10.70;99.90;11.20;101454.00;;;;5097246;28;20246;-69
2022/04/20 04:20:14;;;;;;;0.50;0.50;;;10.80;99.90;10.80;101446.00;;;;5115249;28;20177;-69
2022/04/20 04:22:40;;;;;;;0.20;0.20;;;10.70;99.90;10.80;101448.00;;;;5115794;28;20175;-69
2022/04/20 04:25:16;;;;;;;0.83;0.83;;;10.70;99.90;11.10;101456.00;;;;5114919;28;20176;-69
2022/04/20 04:27:44;;;;;;;0.30;0.30;;;10.80;99.90;11.20;101454.00;;;;5114780;28;20203;-69
2022/04/20 04:30:13;;;;;;;1.03;1.03;;;10.80;99.90;11.20;101426.00;;;;5114472;28;20181;-69
2022/04/20 04:32:44;;;;;;;0.60;0.60;;;10.80;99.90;11.30;101471.00;;;;5097687;28;20545;-69
2022/04/20 04:35:17;;;;;;;0.13;0.13;;;10.90;99.90;11.00;101429.00;;;;5114794;28;20184;-69
2022/04/20 04:37:43;;;;;;;1.27;1.20;;;10.80;99.90;10.50;101469.00;;;;5115367;28;20222;-69
2022/04/20 04:40:18;;;;;;;3.60;1.23;;;10.60;99.90;10.80;101459.00;;;;5097685;28;20718;-69
2022/04/20 04:42:50;;;;;;;0.40;0.40;;;10.50;99.90;10.40;101463.00;;;;5098242;28;20191;-69
2022/04/20 04:48:36;;;;;;;0.20;0.20;;;10.60;99.90;10.60;101421.00;;;;5114230;28;20195;-69
2022/04/20 04:51:15;;;;;;;0.40;0.40;;;10.50;99.90;10.60;101439.00;;;;5114334;28;20607;-69
2022/04/20 04:53:44;;;;;;;0.47;0.47;;;10.50;99.90;10.60;101464.00;;;;5114326;28;20508;-70
2022/04/20 04:56:21;;;;;;;0.53;0.53;;;10.50;99.90;10.90;101467.00;;;;5097215;28;20183;-69
2022/04/20 04:58:59;;;;;;;0.23;0.23;;;10.70;99.90;11.10;101474.00;;;;5096723;28;20715;-71
2022/04/20 05:01:36;;;;;;;2.13;0.47;;;10.80;99.90;10.90;101470.00;;;;5097378;28;20238;-70
2022/04/20 05:04:03;;;;;;;0.20;0.20;;;10.80;99.90;10.30;101470.00;;;;5114185;28;20176;-70
2022/04/20 05:06:31;;;;;;;0.33;0.33;;;10.60;99.90;10.50;101480.00;;;;5096497;27;20187;-70
2022/04/20 05:09:00;;;;;;;0.47;0.47;;;10.50;99.90;10.30;101486.00;;;;5113606;28;20191;-70
2022/04/20 05:11:31;;;;;;;0.20;0.20;;;10.40;99.90;11.10;101462.00;;;;5096655;28;20222;-70
2022/04/20 05:13:57;;;;;;;1.40;1.30;;;10.60;99.90;10.80;101481.00;;;;5118967;27;20184;-70
2022/04/20 05:16:31;;;;;;;0.40;0.40;;;10.80;99.90;11.00;101487.00;;;;5107863;28;20197;-70
2022/04/20 05:18:59;;;;;;;0.10;0.10;;;10.90;99.90;11.20;101482.00;;;;5114904;27;20282;-70
2022/04/20 05:21:25;;;;;;;0.33;0.33;;;11.10;99.90;11.80;101503.00;;;;5113319;28;20643;-70
2022/04/20 05:23:54;;;;;;;2.20;0.63;;;11.40;99.90;12.40;101491.00;;;;5095967;28;20198;-68
2022/04/20 05:26:26;;;;;;;0.40;0.40;;;12.00;99.90;12.70;101499.00;;;;5097139;28;20186;-68
2022/04/20 05:28:55;;;;;;;0.30;0.30;;;12.60;99.90;13.50;101499.00;;;;5112981;28;20184;-68
2022/04/20 05:31:24;;;;;;;0.40;0.40;;;13.20;99.90;14.10;101497.00;;;;5113205;28;20213;-68
2022/04/20 05:33:49;;;;;;;0.70;0.70;;;13.50;99.90;15.20;101455.00;;;;5096411;28;20196;-69
2022/04/20 05:36:20;;;;;;;2.77;1.93;;;14.50;99.90;14.50;101454.00;;;;5106400;28;20192;-69
2022/04/20 05:41:41;;;;;;;1.40;0.50;;;14.20;99.90;13.40;101510.00;;;;5112934;28;20721;-69
2022/04/20 05:44:19;;;;;;;0.70;0.70;;;13.60;99.90;13.00;101518.00;;;;5113189;28;20582;-69
2022/04/20 05:46:47;;;;;;;3.00;2.37;;;13.00;99.90;12.70;101521.00;;;;5096498;28;20294;-69
2022/04/20 05:49:16;;;;;;;0.60;0.60;;;12.90;99.90;12.50;101484.00;;;;5112974;28;20321;-69
2022/04/20 05:51:44;;;;;;;1.00;0.93;;;12.70;99.90;12.30;101519.00;;;;5113946;28;20579;-69
2022/04/20 05:54:10;;;;;;;0.50;0.50;;;12.60;99.90;12.60;101519.00;;;;5114006;27;20279;-69
2022/04/20 05:56:36;;;;;;;0.33;0.33;;;12.60;99.90;12.50;101526.00;;;;5125208;27;20325;-69
2022/04/20 05:59:06;;;;;;;1.83;0.97;;;12.50;99.90;11.90;101521.00;;;;5123691;27;20631;-69
2022/04/20 06:01:37;;;;;;;0.30;0.30;;;12.20;99.90;12.40;101528.00;;;;5133216;27;20192;-68
2022/04/20 06:04:03;;;;;;;0.60;0.60;;;12.40;99.90;12.00;101530.00;;;;5129781;27;20267;-68
2022/04/20 06:06:29;;;;;;;1.83;1.73;;;12.10;99.90;11.80;101530.00;;;;5116057;27;20233;-68
2022/04/20 06:08:55;;;;;;;1.23;0.60;;;12.10;99.90;12.50;101535.00;;;;5116746;27;20179;-68
2022/04/20 06:11:24;;;;;;;0.20;0.20;;;12.20;99.90;12.70;101523.00;;;;5116082;27;20204;-68
2022/04/20 06:13:50;;;;;;;0.23;0.23;;;12.40;99.90;12.80;101537.00;;;;5134522;27;20606;-68
2022/04/20 06:16:16;;;;;;;2.27;1.73;;;12.50;99.90;13.00;101520.00;;;;5116262;27;20236;-68
2022/04/20 06:18:42;;;;;;;0.43;0.43;;;12.60;99.90;12.60;101538.00;;;;5116067;27;20269;-68
2022/04/20 06:21:07;;;;;;;0.73;0.73;;;12.60;99.90;12.70;101536.00;;;;5116096;27;20188;-68
2022/04/20 06:23:33;;;;;;;1.30;1.30;;;12.60;99.90;13.00;101527.00;;;;5115167;27;20192;-68
2022/04/20 06:26:00;;;;;;;1.00;0.97;;;12.70;99.90;12.40;101539.00;;;;5114568;27;20193;-68
2022/04/20 06:28:26;;;;;;;0.90;0.90;;;12.60;99.90;12.40;101498.00;;;;5132825;27;20230;-67
2022/04/20 06:30:53;;;;;;;0.60;0.60;;;12.40;99.90;12.50;101538.00;;;;5133444;28;20539;-68
2022/04/20 06:33:21;;;;;;;1.10;1.00;;;12.60;99.90;12.50;101539.00;;;;5133062;28;20232;-68
2022/04/20 06:35:48;;;;;;;0.97;0.97;;;12.40;99.90;12.40;101532.00;;;;5132968;28;20167;-68
2022/04/20 06:38:13;;;;;;;0.97;0.87;;;12.30;99.90;12.40;101535.00;;;;5115827;28;20229;-68
2022/04/20 06:40:39;;;;;;;0.73;0.73;;;12.30;99.90;12.40;101533.00;;;;5113976;28;20188;-68
2022/04/20 06:43:05;;;;;;;0.30;0.30;;;12.50;99.90;12.70;101540.00;;;;5115914;28;20189;-69
2022/04/20 06:45:31;;;;;;;0.27;0.27;;;12.50;99.90;13.20;101535.00;;;;5115882;28;20175;-68
2022/04/20 06:48:03;;;;;;;1.80;0.47;;;12.70;99.90;13.60;101539.00;;;;5133033;28;20638;-68
2022/04/20 06:50:31;;;;;;;0.20;0.20;;;13.00;99.90;13.60;101542.00;;;;5115657;28;20531;-69
2022/04/20 06:58:41;;;;;;;1.07;1.07;;;12.80;99.90;12.90;101534.00;;;;5134748;27;20206;-69
2022/04/20 07:01:08;;;;;;;0.47;0.47;;;12.80;99.90;13.50;101549.00;;;;5123879;27;20244;-69
2022/04/20 07:03:36;;;;;;;0.50;0.50;;;13.10;99.90;13.80;101556.00;;;;5101951;28;20238;-69
2022/04/20 07:06:03;;;;;;;0.50;0.50;;;13.40;99.90;13.50;101546.00;;;;5116119;28;20211;-69
2022/04/20 07:08:31;;;;;;;2.00;0.97;;;13.40;99.90;13.90;101543.00;;;;5098732;28;20188;-69
2022/04/20 07:10:57;;;;;;;0.43;0.43;;;13.40;99.90;13.30;101554.00;;;;5100673;27;20672;-68
2022/04/20 07:13:23;;;;;;;0.30;0.30;;;13.40;99.90;12.30;101554.00;;;;5126711;27;20217;-68
2022/04/20 07:15:50;;;;;;;1.03;0.77;;;12.80;99.90;12.90;101560.00;;;;5122753;27;20197;-68
2022/04/20 07:18:16;;;;;;;1.03;0.93;;;13.00;99.90;13.00;101563.00;;;;5136794;27;20206;-68
2022/04/20 07:20:42;;;;;;;0.87;0.87;;;13.10;99.90;13.10;101559.00;;;;5136116;27;20528;-68
2022/04/20 07:23:11;;;;;;;36.37;4.37;;;13.00;99.90;13.60;101556.00;;;;5118420;27;20199;-69
2022/04/20 07:25:38;;;;;;;0.93;0.93;;;13.30;99.90;13.50;101568.00;;;;5118058;27;20181;-69
2022/04/20 07:28:05;;;;;;;0.77;0.77;;;13.30;99.90;13.40;101555.00;;;;5134397;27;20178;-69
2022/04/20 07:30:33;;;;;;;0.77;0.77;;;13.40;99.90;13.10;101556.00;;;;5135209;27;20186;-69
2022/04/20 07:32:59;;;;;;;0.30;0.30;;;13.30;99.90;13.50;101550.00;;;;5136879;27;20209;-69
2022/04/20 07:35:25;;;;;;;1.83;1.73;;;13.30;99.90;13.30;101547.00;;;;5117863;27;20204;-69
2022/04/20 07:37:51;;;;;;;1.30;0.83;;;13.30;99.90;13.40;101560.00;;;;5136221;27;20606;-68
2022/04/20 07:40:16;;;;;;;1.23;1.13;;;13.30;99.90;14.00;101556.00;;;;5135402;27;20245;-68
2022/04/20 07:42:43;;;;;;;0.53;0.53;;;13.60;99.90;14.40;101559.00;;;;5119374;27;20173;-67
2022/04/20 07:45:09;;;;;;;1.90;1.80;;;13.90;99.90;14.40;101554.00;;;;5135785;27;20209;-68
2022/04/20 07:47:46;;;;;;;1.33;1.27;;;14.00;99.90;14.50;101557.00;;;;5135766;27;20236;-68
2022/04/20 07:50:24;;;;;;;1.30;1.20;;;14.00;99.90;14.10;101565.00;;;;5135984;27;20239;-69
2022/04/20 07:53:00;;;;;;;2.20;1.43;;;14.10;99.90;13.60;101571.00;;;;5135630;27;20207;-68
2022/04/20 07:55:29;;;;;;;3.17;0.63;;;13.90;99.90;13.90;101579.00;;;;5118546;27;20642;-68
2022/04/20 07:57:59;;;;;;;1.53;1.43;;;13.70;99.90;14.20;101573.00;;;;5118383;27;20278;-67
2022/04/20 08:00:30;;;;;;;1.83;1.13;;;13.90;99.90;13.80;101583.00;;;;5118651;27;20189;-68
2022/04/20 08:03:13;;;;;;;4.93;1.13;;;14.00;99.90;14.00;101568.00;;;;5135237;27;20243;-68
2022/04/20 08:05:40;;;;;;;0.60;0.40;;;13.90;99.90;14.10;101556.00;;;;5135524;27;20260;-68
2022/04/20 08:08:08;;;;;;;0.93;0.67;;;13.80;99.90;14.00;101568.00;;;;5135389;27;20533;-68
2022/04/20 08:10:37;;;;;;;0.17;0.17;;;13.90;99.90;14.40;101575.00;;;;5116592;27;20258;-68
2022/04/20 08:14:09;;;;;;;0.70;0.63;;;14.20;99.90;14.60;101570.00;;;;5135361;27;20268;-68
2022/04/20 08:15:51;;;;;;;3.23;1.30;;;14.40;99.90;14.30;101571.00;;;;5135148;27;20205;-68
2022/04/20 08:18:19;;;;;;;3.00;1.60;;;14.20;99.90;14.40;101575.00;;;;5117811;27;20183;-68
2022/04/20 08:20:46;;;;;;;0.93;0.93;;;14.30;99.90;14.30;101587.00;;;;5118038;27;20228;-68
2022/04/20 08:23:11;;;;;;;0.73;0.73;;;14.30;99.90;14.50;101572.00;;;;5117560;27;20580;-68
2022/04/20 08:25:39;;;;;;;0.10;0.10;;;14.50;99.90;14.70;101584.00;;;;5117505;27;20199;-68
2022/04/20 08:28:09;;;;;;;1.03;1.03;;;14.40;99.90;15.40;101577.00;;;;5135352;27;20177;-68
2022/04/20 08:30:37;;;;;;;0.80;0.80;;;14.90;99.90;15.00;101580.00;;;;5135122;27;20179;-67
2022/04/20 08:33:08;;;;;;;4.10;0.60;;;14.80;99.90;14.80;101586.00;;;;5133422;27;20683;-68
2022/04/20 08:35:35;;;;;;;1.47;1.30;;;14.70;99.90;15.10;101587.00;;;;5135255;27;20228;-68
2022/04/20 08:38:09;;;;;;;9.13;7.73;;;14.90;99.80;16.00;101580.00;;;;5134471;27;20267;-68
2022/04/20 08:40:39;;;;;;;2.97;2.37;;;15.40;99.70;15.80;101576.00;;;;5134048;27;20655;-68
2022/04/20 08:43:08;;;;;;;3.40;1.43;;;15.60;99.10;15.00;101587.00;;;;5134898;27;20166;-68
2022/04/20 08:45:38;;;;;;;0.70;0.70;;;15.30;98.60;15.10;101585.00;;;;5117965;27;20234;-69
2022/04/20 08:48:05;;;;;;;0.13;0.13;;;15.00;98.90;16.00;101589.00;;;;5135004;27;20277;-69
2022/04/20 08:50:32;;;;;;;0.20;0.20;;;15.40;99.30;16.90;101571.00;;;;5134605;27;20172;-69
2022/04/20 08:53:00;;;;;;;1.13;1.13;;;16.10;99.10;16.40;101568.00;;;;5116823;27;20709;-68
2022/04/20 08:55:26;;;;;;;1.40;0.70;;;16.20;98.70;16.60;101579.00;;;;5117750;27;20182;-69
2022/04/20 08:57:52;;;;;;;1.13;1.10;;;16.30;97.80;16.70;101581.00;;;;5134374;27;20222;-69
2022/04/20 09:00:27;;;;;;;1.10;0.60;;;16.40;98.00;16.50;101571.00;;;;5133861;27;20178;-69
2022/04/20 09:02:56;;;;;;;1.53;1.00;;;16.40;97.30;17.00;101585.00;;;;5117949;27;20183;-69
2022/04/20 09:05:28;;;;;;;0.93;0.80;;;16.60;97.10;15.90;101576.00;;;;5096561;28;20196;-69
2022/04/20 09:08:18;;;;;;;0.93;0.70;;;16.20;96.70;16.40;101576.00;;;;5096666;28;20672;-69
2022/04/20 09:10:45;;;;;;;0.40;0.40;;;16.00;97.40;17.10;101562.00;;;;5113270;28;20765;-69
2022/04/20 09:13:12;;;;;;;0.63;0.63;;;16.50;97.30;16.90;101565.00;;;;5096785;28;20200;-69
2022/04/20 09:15:40;;;;;;;0.70;0.70;;;16.70;97.30;16.70;101562.00;;;;5112482;28;20169;-70
2022/04/20 09:18:11;;;;;;;0.37;0.30;;;17.00;96.50;17.40;101562.00;;;;5113929;28;20180;-67
2022/04/20 09:20:40;;;;;;;1.40;1.30;;;17.20;96.60;16.20;101569.00;;;;5113861;28;20247;-67
2022/04/20 09:23:09;;;;;;;1.90;1.80;;;16.80;95.50;15.80;101564.00;;;;5096568;28;20183;-68
2022/04/20 09:25:41;;;;;;;0.40;0.40;;;15.90;96.90;16.30;101551.00;;;;5114097;28;20265;-69
2022/04/20 09:28:08;;;;;;;0.30;0.30;;;16.30;96.70;17.90;101548.00;;;;5113318;28;20570;-69
2022/04/20 09:30:40;;;;;;;0.20;0.20;;;17.10;96.60;17.40;101536.00;;;;5113164;28;20186;-68
2022/04/20 09:33:13;;;;;;;0.77;0.77;;;17.30;96.00;18.10;101541.00;;;;5113411;27;20217;-69
2022/04/20 09:35:53;;;;;;;1.50;1.40;;;17.60;94.90;16.90;101492.00;;;;5134834;27;20718;-69
2022/04/20 09:38:21;;;;;;;1.80;1.70;;;17.60;93.10;16.70;101539.00;;;;5133823;27;20178;-68
2022/04/20 09:40:49;;;;;;;2.70;1.90;;;17.00;93.50;16.60;101533.00;;;;5133440;27;20207;-69
2022/04/20 09:43:19;;;;;;;1.13;0.73;;;17.00;93.20;17.40;101504.00;;;;5133542;27;20179;-69
2022/04/20 09:48:50;;;;;;;0.30;0.30;;;16.90;93.20;17.40;101532.00;;;;5135059;27;20178;-69
2022/04/20 09:49:10;;;;;;;1.30;1.03;;;17.40;93.00;18.00;101510.00;;;;5133301;27;20183;-69
2022/04/20 09:51:41;;;;;;;0.95;0.55;;;17.80;92.10;17.60;101526.00;;;;5132865;27;20532;-69
2022/04/20 09:54:27;;;;;;;1.70;0.93;;;17.60;91.60;18.10;101514.00;;;;5133686;27;20177;-68
2022/04/20 09:57:14;;;;;;;0.47;0.47;;;17.70;92.20;18.40;101516.00;;;;5116713;27;20543;-68
2022/04/20 10:00:10;;;;;;;3.30;2.77;;;17.90;91.70;18.10;101522.00;;;;5116309;27;20647;-68
2022/04/20 10:02:49;;;;;;;1.73;1.07;;;18.30;91.20;17.80;101521.00;;;;5120054;27;20272;-68
2022/04/20 10:05:16;;;;;;;1.87;1.77;;;17.90;91.60;17.30;101514.00;;;;5095985;28;20175;-68
2022/04/20 10:07:43;;;;;;;2.10;1.80;;;17.60;91.30;17.00;101519.00;;;;5114293;28;20268;-68
2022/04/20 10:10:09;;;;;;;0.50;0.50;;;17.50;91.10;17.70;101518.00;;;;5095497;28;20190;-68
2022/04/20 10:12:42;;;;;;;1.00;0.95;;;17.60;91.70;18.30;101517.00;;;;5112083;28;20656;-68
2022/04/20 10:17:56;;;;;;;0.60;0.60;;;17.00;91.40;17.10;101513.00;;;;5112424;28;20184;-68
2022/04/20 10:20:26;;;;;;;0.67;0.67;;;17.10;91.20;16.40;101521.00;;;;5094883;28;20194;-67
2022/04/20 10:33:23;;;;;;;1.37;1.27;;;17.50;90.90;17.60;101503.00;;;;5155470;27;164351;-68
2022/04/20 10:36:05;;;;;;;0.63;0.60;;;17.70;90.60;18.50;101496.00;;;;5113781;28;20551;-68
2022/04/20 10:38:32;;;;;;;0.63;0.63;;;18.20;90.30;18.80;101482.00;;;;5130537;28;20189;-68
2022/04/20 10:41:12;;;;;;;1.27;1.13;;;18.40;90.00;18.10;101500.00;;;;5130768;28;20178;-68
2022/04/20 10:43:43;;;;;;;0.63;0.63;;;18.10;90.00;18.10;101496.00;;;;5113225;28;20176;-69
2022/04/20 10:46:20;;;;;;;1.80;0.77;;;18.10;90.20;18.10;101494.00;;;;5130755;27;20265;-69
2022/04/20 10:49:07;;;;;;;0.97;0.97;;;18.30;89.40;18.30;101490.00;;;;5130411;27;20553;-68
2022/04/20 10:51:42;;;;;;;1.10;1.10;;;18.20;90.00;18.00;101463.00;;;;5130973;27;20188;-68
2022/04/20 10:54:17;;;;;;;1.23;1.07;;;17.90;89.60;18.90;101486.00;;;;5112867;28;20171;-67
2022/04/20 10:57:02;;;;;;;1.57;1.17;;;18.50;89.00;18.20;101486.00;;;;5131355;27;20182;-68
2022/04/20 10:59:39;;;;;;;5.87;0.77;;;18.40;86.90;17.90;101479.00;;;;5137045;27;20255;-68
2022/04/20 11:02:15;;;;;;;0.70;0.70;;;17.90;88.70;19.30;101484.00;;;;5141182;27;20208;-69
2022/04/20 11:04:50;;;;;;;0.68;0.68;;;18.70;88.30;19.70;101474.00;;;;5122444;27;20183;-68
2022/04/20 11:07:26;;;;;;;3.53;1.45;;;19.10;86.80;18.70;101448.00;;;;5140258;27;20636;-69
2022/04/20 11:10:06;;;;;;;0.40;0.40;;;19.00;85.70;19.00;101473.00;;;;5124541;27;20192;-68
2022/04/20 11:18:45;;;;;;;15.73;1.00;;;18.80;86.30;19.30;101481.00;;;;5140261;27;20270;-68
2022/04/20 11:21:13;;;;;;;0.95;0.63;;;19.20;85.00;19.00;101476.00;;;;5114686;28;20193;-68
2022/04/20 11:23:59;;;;;;;2.22;1.23;;;19.00;85.40;19.60;101433.00;;;;5144966;27;20193;-68
2022/04/20 11:26:35;;;;;;;2.08;1.77;;;19.50;83.40;19.70;101464.00;;;;5133224;27;20179;-68
2022/04/20 11:29:14;;;;;;;2.63;2.03;;;19.60;83.60;19.50;101460.00;;;;5139349;27;20183;-70
2022/04/20 11:32:03;;;;;;;0.43;0.43;;;19.30;83.30;19.80;101426.00;;;;5112299;27;20221;-69
2022/04/20 11:34:36;;;;;;;1.02;0.80;;;19.50;83.70;18.90;101448.00;;;;5129603;28;20229;-69
2022/04/20 11:37:06;;;;;;;1.55;1.45;;;19.20;83.00;18.60;101425.00;;;;5129328;28;20179;-69
2022/04/20 11:39:35;;;;;;;1.77;1.63;;;19.00;84.20;18.20;101458.00;;;;5128852;28;20520;-69
2022/04/20 11:42:07;;;;;;;0.80;0.80;;;18.60;83.50;18.40;101451.00;;;;5112029;28;20210;-69